Observations for CIAMPINO IT-AFB CV, Italy (LIRA)

LIRA 191950Z 14005KT CAVOK 18/13 Q1018  
LIRA 191920Z 15006KT CAVOK 17/14 Q1018  
LIRA 191850Z 15005KT CAVOK 17/14 Q1018  
LIRA 191820Z 17003KT CAVOK 17/13 Q1018  
LIRA 191750Z 17003KT CAVOK 17/13 Q1018  
LIRA 191720Z 17004KT CAVOK 18/14 Q1018  
LIRA 191650Z 17005KT 9999 FEW025 19/14 Q1017
LIRA 191620Z 17006KT 9999 FEW025 19/14 Q1017
LIRA 191550Z 17006KT 9999 FEW030 20/14 Q1017
LIRA 191520Z 16007KT 130V190 9999 FEW035 21/13 Q1017
LIRA 191450Z 19008KT 9999 FEW040 21/13 Q1017
LIRA 191420Z 14006KT 9999 FEW040 21/11 Q1017
LIRA 191350Z 15006KT 120V180 9999 SCT040 22/12 Q1017
LIRA 191320Z 16006KT 130V200 9999 SCT040 21/12 Q1017
LIRA 191250Z 19005KT 9999 SCT040 21/12 Q1017
LIRA 191220Z 19006KT 160V240 9999 SCT040 22/12 Q1017
LIRA 191150Z 14005KT 080V190 9999 SCT040 22/13 Q1018
LIRA 191120Z VRB04KT 9999 SCT040 22/12 Q1018
LIRA 191050Z 17005G16KT 090V240 9999 SCT040 22/12 Q1018 
LIRA 191020Z 18006KT 140V230 9999 FEW050 21/13 Q1018
LIRA 190950Z 14006KT 100V170 9999 FEW050 20/13 Q1018
LIRA 190920Z 16006KT 130V200 9999 FEW050 20/13 Q1018
LIRA 190850Z VRB03KT CAVOK 20/13 Q1018  
LIRA 190820Z 32003KT 300V360 CAVOK 17/12 Q1018  
LIRA 190750Z 31004KT CAVOK 16/12 Q1019  
LIRA 190720Z 32003KT CAVOK 15/12 Q1018  
LIRA 190650Z VRB01KT CAVOK 15/12 Q1018  
LIRA 190620Z VRB02KT CAVOK 12/11 Q1017  
LIRA 190550Z VRB02KT CAVOK 12/11 Q1017  
LIRA 190520Z VRB01KT CAVOK 12/10 Q1017  
LIRA 190450Z VRB02KT CAVOK 13/11 Q1017  
LIRA 190420Z 10005KT CAVOK 13/11 Q1017  
LIRA 190350Z 08003KT CAVOK 13/11 Q1017  
LIRA 190320Z VRB02KT CAVOK 13/11 Q1017  
LIRA 190250Z VRB02KT CAVOK 13/11 Q1017  
LIRA 190220Z VRB02KT CAVOK 14/11 Q1018  
LIRA 190150Z 09004KT CAVOK 14/11 Q1018  
LIRA 190050Z 10004KT CAVOK 14/11 Q1018  
LIRA 190020Z 11004KT CAVOK 14/11 Q1018  
LIRA 182350Z 10005KT CAVOK 14/11 Q1018  
LIRA 182320Z 10006KT CAVOK 15/12 Q1018  
LIRA 182250Z 09005KT CAVOK 15/12 Q1018  
LIRA 182220Z 10005KT CAVOK 15/12 Q1018  
LIRA 182150Z 10004KT CAVOK 15/12 Q1019  
LIRA 182120Z 10004KT CAVOK 15/12 Q1018  
LIRA 182050Z 10005KT CAVOK 15/12 Q1019  
LIRA 182020Z 10004KT CAVOK 15/12 Q1018  
LIRA 181950Z 11005KT CAVOK 15/12 Q1019  
LIRA 181920Z 11004KT CAVOK 15/12 Q1018